Time;durP1;ratioP1;P1;durP2;ratioP2;P2;SDS_P1;SDS_P2;PMS_P1;PMS_P2;Temp;Humidity;BMP_temperature;BMP_pressure;BME280_temperature;BME280_humidity;BME280_pressure;Samples;Min_cycle;Max_cycle;Signal;HPM_P1;HPM_P2
2021/07/13 00:03:18;;;;;;;9.43;6.07;;;;;;;21.01;79.95;100941.88;10035917;29;20267;-69
2021/07/13 00:08:14;;;;;;;9.82;6.70;;;;;;;20.94;80.16;100944.59;10037399;29;20075;-69
2021/07/13 00:13:11;;;;;;;11.38;7.28;;;;;;;20.90;80.72;100947.34;10035124;29;20528;-69
2021/07/13 00:18:09;;;;;;;9.88;7.07;;;;;;;20.85;80.64;100944.13;10009200;29;20047;-69
2021/07/13 00:23:05;;;;;;;9.98;6.78;;;;;;;20.79;80.53;100958.38;10037288;29;20044;-69
2021/07/13 00:28:03;;;;;;;11.15;7.10;;;;;;;20.77;80.61;100960.72;10036767;29;20055;-68
2021/07/13 00:32:59;;;;;;;9.13;7.07;;;;;;;20.77;81.04;100957.13;10025787;29;20072;-69
2021/07/13 00:37:56;;;;;;;11.98;7.47;;;;;;;20.72;80.99;100955.50;10032782;29;20465;-68
2021/07/13 00:42:53;;;;;;;10.98;7.70;;;;;;;20.71;80.91;100951.13;10036721;29;20048;-70
2021/07/13 00:47:51;;;;;;;9.20;7.35;;;;;;;20.70;80.93;100949.56;10032267;29;20090;-70
2021/07/13 00:52:48;;;;;;;8.35;7.40;;;;;;;20.69;80.74;100950.72;10043305;29;20406;-70
2021/07/13 00:57:45;;;;;;;8.20;7.13;;;;;;;20.69;81.71;100953.50;10029123;29;20462;-68
2021/07/13 01:02:43;;;;;;;9.07;7.45;;;;;;;20.70;81.73;100955.09;10040626;29;20064;-71
2021/07/13 01:08:18;;;;;;;11.70;7.75;;;;;;;20.71;82.21;100951.13;10031697;29;20114;-69
2021/07/13 01:13:30;;;;;;;;;;;;;;;20.73;82.05;100948.78;10030236;29;20486;-71
2021/07/13 01:18:32;;;;;;;11.70;8.45;;;;;;;20.74;82.83;100955.91;10028577;29;20301;-69
2021/07/13 01:23:39;;;;;;;9.63;7.35;;;;;;;20.73;83.25;100948.00;10032168;29;20047;-71
2021/07/13 01:28:42;;;;;;;12.65;8.95;;;;;;;20.71;82.95;100942.00;10032932;29;20070;-72
2021/07/13 01:33:42;;;;;;;11.85;8.40;;;;;;;20.70;81.92;100924.53;10024119;29;20168;-69
2021/07/13 01:38:41;;;;;;;10.32;8.15;;;;;;;20.73;82.10;100934.09;10035057;29;20079;-74
2021/07/13 01:43:40;;;;;;;10.48;8.13;;;;;;;20.73;82.71;100921.00;10027425;29;20039;-70
2021/07/13 01:48:38;;;;;;;11.20;7.50;;;;;;;20.73;82.79;100907.09;10030938;29;20107;-71
2021/07/13 01:53:36;;;;;;;15.63;8.40;;;;;;;20.72;82.54;100897.16;10024981;29;20036;-69
2021/07/13 01:58:36;;;;;;;11.40;8.63;;;;;;;20.70;83.00;100888.44;10028772;29;20765;-70
2021/07/13 02:03:32;;;;;;;9.82;8.18;;;;;;;20.66;83.41;100876.47;10031023;29;20071;-71
2021/07/13 02:08:29;;;;;;;10.43;8.20;;;;;;;20.57;83.19;100881.56;10030830;29;20102;-70
2021/07/13 02:13:26;;;;;;;11.35;8.18;;;;;;;20.49;82.87;100888.16;10018496;29;20040;-69
2021/07/13 02:18:22;;;;;;;13.68;8.88;;;;;;;20.48;82.96;100886.59;10037238;29;20469;-68
2021/07/13 02:23:19;;;;;;;11.43;8.45;;;;;;;20.43;82.67;100889.72;10030087;29;20493;-69
2021/07/13 02:28:18;;;;;;;9.98;8.68;;;;;;;20.42;82.78;100888.91;10029509;29;20131;-70
2021/07/13 02:33:28;;;;;;;14.38;10.00;;;;;;;20.39;83.36;100890.47;10032283;29;20067;-72
2021/07/13 02:38:27;;;;;;;12.05;8.88;;;;;;;20.36;83.37;100896.78;10023569;28;20059;-71
2021/07/13 02:43:24;;;;;;;11.50;8.82;;;;;;;20.29;83.26;100888.38;10030837;29;20143;-70
2021/07/13 02:48:21;;;;;;;12.82;8.23;;;;;;;20.25;83.35;100890.31;10023227;29;20488;-70
2021/07/13 02:53:19;;;;;;;13.00;9.80;;;;;;;20.19;82.69;100880.75;10022852;29;20044;-70
2021/07/13 02:58:17;;;;;;;11.05;9.85;;;;;;;20.20;83.29;100879.56;10030471;29;20172;-71
2021/07/13 03:03:15;;;;;;;11.82;8.50;;;;;;;20.15;83.14;100888.22;10024694;29;20052;-72
2021/07/13 03:08:13;;;;;;;13.95;9.50;;;;;;;20.12;83.51;100875.09;10022119;29;20502;-70
2021/07/13 03:13:09;;;;;;;11.07;9.45;;;;;;;20.09;83.48;100875.84;10024832;29;20130;-69
2021/07/13 03:18:06;;;;;;;13.68;8.77;;;;;;;20.06;83.46;100876.63;10040217;29;20094;-69
2021/07/13 03:23:04;;;;;;;12.35;9.48;;;;;;;20.04;83.79;100879.75;10034011;29;20501;-69
2021/07/13 03:28:03;;;;;;;14.40;9.48;;;;;;;20.00;83.58;100889.22;10029818;29;20079;-70
2021/07/13 03:33:00;;;;;;;12.32;10.15;;;;;;;19.95;82.99;100893.13;10036662;29;20051;-70
2021/07/13 03:37:58;;;;;;;19.98;10.27;;;;;;;19.94;82.85;100897.88;10037636;29;20082;-71
2021/07/13 03:42:56;;;;;;;16.35;10.73;;;;;;;19.96;82.33;100887.22;10038448;29;20039;-68
2021/07/13 03:47:54;;;;;;;15.65;11.82;;;;;;;19.96;81.54;100884.44;10036148;29;20398;-67
2021/07/13 03:52:50;;;;;;;17.08;12.27;;;;;;;20.02;82.89;100889.66;10016373;29;20051;-67
2021/07/13 03:57:48;;;;;;;20.02;13.38;;;;;;;20.04;83.04;100904.75;10034064;28;20051;-69
2021/07/13 04:02:45;;;;;;;16.02;13.77;;;;;;;20.07;83.37;100892.06;10027646;29;20723;-69
2021/07/13 04:07:42;;;;;;;18.45;15.15;;;;;;;20.12;83.69;100897.28;10029798;29;20079;-69
2021/07/13 04:12:39;;;;;;;20.45;14.88;;;;;;;20.12;83.35;100900.88;10031218;29;20403;-69
2021/07/13 04:17:35;;;;;;;24.85;17.63;;;;;;;20.09;82.23;100898.84;10026092;29;20051;-70
2021/07/13 04:22:32;;;;;;;21.00;14.82;;;;;;;20.13;83.13;100898.91;10032702;29;20048;-70
2021/07/13 04:27:32;;;;;;;16.25;12.93;;;;;;;20.12;79.75;100894.50;10024988;29;20059;-70
2021/07/13 04:32:29;;;;;;;22.98;16.50;;;;;;;20.21;81.66;100894.22;10016587;29;20043;-69
2021/07/13 04:37:25;;;;;;;20.60;15.57;;;;;;;20.24;83.98;100897.06;10020722;29;20419;-70
2021/07/13 04:42:22;;;;;;;17.17;15.05;;;;;;;20.23;82.25;100898.22;10028242;29;20045;-68
2021/07/13 04:47:19;;;;;;;21.60;16.85;;;;;;;20.27;82.20;100899.06;10032435;29;20079;-69
2021/07/13 04:52:15;;;;;;;18.60;15.20;;;;;;;20.31;82.21;100899.91;10031439;29;20051;-70
2021/07/13 04:57:12;;;;;;;20.67;15.63;;;;;;;20.31;81.88;100893.56;10013313;29;20099;-69
2021/07/13 05:02:09;;;;;;;15.77;12.20;;;;;;;20.37;80.99;100898.38;10024736;29;20118;-73
2021/07/13 05:07:05;;;;;;;23.23;15.27;;;;;;;20.38;80.88;100899.97;10019056;29;20114;-70
2021/07/13 05:12:02;;;;;;;21.88;17.52;;;;;;;20.45;83.48;100904.03;10015535;29;20083;-72
2021/07/13 05:16:59;;;;;;;20.25;15.18;;;;;;;20.52;83.63;100917.97;10014537;28;20102;-68
2021/07/13 05:21:56;;;;;;;25.05;17.33;;;;;;;20.63;83.99;100916.13;10025108;29;20139;-67
2021/07/13 05:26:54;;;;;;;18.05;14.50;;;;;;;20.65;84.91;100916.53;10020822;28;20048;-70
2021/07/13 05:31:51;;;;;;;16.73;13.27;;;;;;;20.72;85.13;100921.38;10023960;29;20139;-71
2021/07/13 05:36:48;;;;;;;15.63;13.90;;;;;;;20.73;84.76;100921.00;10023363;29;20528;-69
2021/07/13 05:41:44;;;;;;;17.20;14.32;;;;;;;20.81;84.92;100910.72;10032651;29;20075;-69
2021/07/13 05:46:42;;;;;;;15.57;12.60;;;;;;;20.81;84.17;100911.53;10041982;28;20050;-70
2021/07/13 05:51:38;;;;;;;16.35;14.20;;;;;;;20.80;84.38;100907.16;10029595;29;20395;-69
2021/07/13 05:56:35;;;;;;;18.38;14.65;;;;;;;20.85;84.12;100905.22;10037102;29;20048;-70
2021/07/13 06:01:31;;;;;;;15.15;13.38;;;;;;;20.95;84.46;100910.06;10034942;29;20463;-69
2021/07/13 06:06:28;;;;;;;20.00;11.55;;;;;;;20.98;82.71;100898.19;10018786;29;20058;-70
2021/07/13 06:11:25;;;;;;;15.35;11.65;;;;;;;21.04;80.20;100898.63;10021664;29;20469;-65
2021/07/13 06:16:21;;;;;;;17.00;13.25;;;;;;;21.17;78.67;100902.72;10019645;29;20130;-65
2021/07/13 06:21:18;;;;;;;15.88;12.57;;;;;;;21.27;77.14;100903.97;10031964;29;20102;-67
2021/07/13 06:26:15;;;;;;;14.38;12.25;;;;;;;21.40;79.24;100902.50;10024947;28;20100;-70
2021/07/13 06:31:11;;;;;;;15.65;11.00;;;;;;;21.41;79.23;100892.97;10008672;29;20115;-70
2021/07/13 06:36:08;;;;;;;13.77;11.35;;;;;;;21.45;79.52;100893.00;10015851;28;20135;-69
2021/07/13 06:41:05;;;;;;;13.60;12.20;;;;;;;21.47;79.56;100910.06;10020408;29;20048;-69
2021/07/13 06:46:03;;;;;;;14.73;12.07;;;;;;;21.52;79.83;100910.53;10017160;29;20051;-67
2021/07/13 06:50:59;;;;;;;16.15;13.05;;;;;;;21.56;80.67;100911.34;10005737;29;20525;-68
2021/07/13 06:55:55;;;;;;;15.15;11.05;;;;;;;21.64;80.71;100912.97;10025251;29;20111;-70
2021/07/13 07:00:52;;;;;;;20.92;11.82;;;;;;;21.72;80.06;100899.09;10037846;29;20047;-68
2021/07/13 07:05:48;;;;;;;12.02;10.50;;;;;;;21.74;75.91;100896.72;10006562;29;20079;-67
2021/07/13 07:10:45;;;;;;;16.45;10.68;;;;;;;21.88;77.12;100894.00;10017248;29;20111;-68
2021/07/13 07:15:41;;;;;;;14.05;10.70;;;;;;;21.99;77.07;100894.84;10022011;29;20104;-67
2021/07/13 07:20:38;;;;;;;9.80;8.80;;;;;;;22.04;72.72;100902.81;10014073;29;20096;-66
2021/07/13 07:25:35;;;;;;;11.07;9.40;;;;;;;22.14;69.11;100906.84;10027242;29;20139;-68
2021/07/13 07:30:32;;;;;;;11.32;9.15;;;;;;;22.27;68.05;100898.94;10010879;29;20764;-68
2021/07/13 07:35:29;;;;;;;11.20;9.43;;;;;;;22.36;67.15;100910.50;10026546;29;20083;-68
2021/07/13 07:40:27;;;;;;;13.63;9.65;;;;;;;22.53;71.52;100906.16;10034992;29;20067;-70
2021/07/13 07:45:24;;;;;;;11.35;10.25;;;;;;;22.60;71.70;100897.00;10032675;29;20123;-70
2021/07/13 07:50:24;;;;;;;10.52;9.07;;;;;;;22.69;68.19;100898.22;10028162;29;20067;-74
2021/07/13 07:55:23;;;;;;;12.23;9.25;;;;;;;22.84;70.06;100890.69;10037110;29;20143;-71
2021/07/13 08:00:21;;;;;;;10.63;9.52;;;;;;;22.95;68.50;100892.66;10036200;28;20055;-70
2021/07/13 08:05:18;;;;;;;10.00;8.95;;;;;;;23.04;65.40;100902.25;10033490;29;20118;-65
2021/07/13 08:10:15;;;;;;;12.90;8.85;;;;;;;23.18;66.97;100887.50;10033978;29;20482;-69
2021/07/13 08:15:12;;;;;;;10.35;8.68;;;;;;;23.27;65.44;100887.88;10032405;29;20751;-69
2021/07/13 08:20:10;;;;;;;13.05;9.15;;;;;;;23.37;66.82;100874.31;10031813;29;20102;-70
2021/07/13 08:25:07;;;;;;;10.05;8.68;;;;;;;23.46;67.11;100883.06;10038415;29;20509;-71
2021/07/13 08:30:05;;;;;;;13.45;8.57;;;;;;;23.60;67.23;100874.69;10022522;29;20150;-75
2021/07/13 08:35:02;;;;;;;12.32;9.00;;;;;;;23.72;64.69;100874.22;10013701;29;20151;-70
2021/07/13 08:39:59;;;;;;;12.43;8.13;;;;;;;23.92;63.53;100876.56;10021530;29;20048;-71
2021/07/13 08:44:58;;;;;;;10.40;6.95;;;;;;;24.10;63.74;100877.25;10025587;29;20063;-68
2021/07/13 08:49:56;;;;;;;8.38;7.07;;;;;;;24.32;64.04;100877.13;10021128;28;20055;-70
2021/07/13 08:54:53;;;;;;;9.15;7.50;;;;;;;24.42;62.89;100859.53;10021155;29;20044;-70
2021/07/13 08:59:49;;;;;;;9.80;6.95;;;;;;;24.68;62.95;100860.16;10023565;29;20048;-69
2021/07/13 09:04:46;;;;;;;8.63;6.95;;;;;;;24.82;60.17;100862.06;10025839;29;20086;-71
2021/07/13 09:09:47;;;;;;;7.80;6.65;;;;;;;25.09;61.62;100862.22;10022072;29;20079;-70
2021/07/13 09:14:52;;;;;;;8.50;6.72;;;;;;;25.25;59.23;100848.50;10027329;29;20114;-68
2021/07/13 09:20:07;;;;;;;9.60;7.07;;;;;;;25.34;60.95;100862.78;10029660;29;20498;-69
2021/07/13 09:25:32;;;;;;;7.53;6.43;;;;;;;25.42;60.56;100857.13;10022690;29;20090;-68
2021/07/13 09:30:30;;;;;;;7.93;6.25;;;;;;;25.50;58.93;100861.41;10023775;29;20073;-70
2021/07/13 09:35:26;;;;;;;6.97;5.13;;;;;;;25.53;56.67;100860.56;10013550;29;20095;-71
2021/07/13 09:40:25;;;;;;;6.05;5.45;;;;;;;25.32;59.19;100851.22;10023377;29;20569;-68
2021/07/13 09:45:28;;;;;;;7.93;5.55;;;;;;;25.24;59.81;100851.69;10018680;29;20049;-71
2021/07/13 09:50:43;;;;;;;7.47;6.70;;;;;;;25.55;59.20;100844.16;10027194;29;20055;-69
2021/07/13 09:55:40;;;;;;;6.80;5.57;;;;;;;25.53;57.81;100843.75;10022320;29;20106;-71
2021/07/13 10:00:39;;;;;;;7.85;6.03;;;;;;;25.73;58.10;100830.72;10014754;29;20139;-70
2021/07/13 10:05:37;;;;;;;8.43;5.28;;;;;;;26.11;54.70;100841.88;10014207;29;20052;-70
2021/07/13 10:10:38;;;;;;;5.82;4.32;;;;;;;26.54;53.95;100841.22;9995956;29;20146;-71
2021/07/13 10:15:36;;;;;;;9.82;5.63;;;;;;;26.93;54.14;100848.19;10003569;29;20051;-69
2021/07/13 10:20:34;;;;;;;7.00;6.30;;;;;;;26.64;55.16;100843.09;10020586;28;20047;-69
2021/07/13 10:25:42;;;;;;;7.03;5.78;;;;;;;27.76;56.01;100836.22;10025248;28;20529;-69
2021/07/13 10:30:43;;;;;;;5.78;5.15;;;;;;;27.79;52.37;100852.19;10018043;29;20043;-72
2021/07/13 10:35:39;;;;;;;5.80;4.88;;;;;;;28.20;52.69;100845.31;10014564;29;20043;-73
2021/07/13 10:40:39;;;;;;;5.28;4.53;;;;;;;28.61;49.59;100852.38;10021868;29;20143;-70
2021/07/13 10:45:42;;;;;;;6.20;5.13;;;;;;;28.03;48.42;100840.88;10013875;29;20126;-72
2021/07/13 10:50:48;;;;;;;5.25;4.68;;;;;;;29.84;47.23;100845.06;10015940;28;20044;-69
2021/07/13 10:55:49;;;;;;;7.15;4.90;;;;;;;29.81;46.78;100840.34;10007010;29;20075;-68
2021/07/13 11:05:45;;;;;;;7.63;5.63;;;;;;;29.89;45.32;100840.91;10017629;29;20550;-68
2021/07/13 11:10:42;;;;;;;4.93;4.22;;;;;;;29.65;46.26;100840.41;10017075;29;20087;-68
2021/07/13 11:15:48;;;;;;;7.65;5.43;;;;;;;28.98;48.55;100841.00;10022958;29;20184;-72
2021/07/13 11:20:45;;;;;;;5.72;5.00;;;;;;;29.76;46.53;100843.72;10026896;29;20102;-72
2021/07/13 11:25:41;;;;;;;5.78;4.47;;;;;;;29.82;44.96;100841.91;10021137;29;20253;-69
2021/07/13 11:30:38;;;;;;;5.03;4.05;;;;;;;29.09;47.81;100842.34;10021693;28;20095;-68
2021/07/13 11:35:35;;;;;;;4.82;3.65;;;;;;;30.08;46.37;100841.94;10021742;28;20102;-67
2021/07/13 11:40:32;;;;;;;5.78;3.95;;;;;;;29.82;46.11;100827.81;10030391;29;20417;-67
2021/07/13 11:45:30;;;;;;;5.15;4.38;;;;;;;29.01;46.93;100828.88;10030537;29;20080;-70
2021/07/13 11:50:27;;;;;;;5.32;4.50;;;;;;;28.49;49.18;100833.41;10025026;29;20071;-72
2021/07/13 11:55:24;;;;;;;6.20;4.25;;;;;;;28.12;48.60;100833.41;10026370;29;20127;-66
2021/07/13 12:00:27;;;;;;;7.03;3.92;;;;;;;27.94;49.60;100827.41;10018667;29;20119;-67
2021/07/13 12:05:24;;;;;;;5.82;3.85;;;;;;;27.78;50.09;100827.31;10022516;29;20086;-66
2021/07/13 12:10:40;;;;;;;5.45;4.00;;;;;;;27.55;48.87;100828.22;10019719;29;20044;-71
2021/07/13 12:15:37;;;;;;;4.97;3.75;;;;;;;27.41;51.58;100830.09;10019456;29;20043;-69
2021/07/13 12:20:33;;;;;;;4.35;3.33;;;;;;;27.30;50.11;100835.13;10017935;29;20086;-67
2021/07/13 12:25:30;;;;;;;4.93;3.53;;;;;;;27.39;51.23;100832.53;10021669;29;20130;-66
2021/07/13 12:30:26;;;;;;;8.38;4.03;;;;;;;27.59;50.77;100828.94;10023636;29;20780;-68
2021/07/13 12:35:28;;;;;;;5.18;3.70;;;;;;;27.57;52.15;100826.56;10016312;29;20051;-67
2021/07/13 12:40:27;;;;;;;4.95;3.58;;;;;;;27.41;52.25;100830.09;10026054;29;20508;-67
2021/07/13 12:45:25;;;;;;;5.40;3.95;;;;;;;27.58;50.83;100832.97;10025389;29;20095;-67
2021/07/13 12:50:27;;;;;;;7.75;3.67;;;;;;;27.87;49.86;100814.31;10021079;29;20126;-68
2021/07/13 12:55:28;;;;;;;;;;;;;;;28.00;49.00;100808.03;10017675;29;20048;-67
2021/07/13 13:00:28;;;;;;;7.80;4.28;;;;;;;28.06;50.88;100818.31;10029011;28;20381;-71
2021/07/13 13:05:27;;;;;;;7.60;3.78;;;;;;;28.10;48.80;100818.22;10016601;29;20048;-70
2021/07/13 13:10:28;;;;;;;7.32;3.95;;;;;;;28.16;50.07;100816.47;10017100;29;20549;-66
2021/07/13 13:15:26;;;;;;;4.53;3.80;;;;;;;28.32;48.79;100813.69;10017543;29;20598;-66
2021/07/13 13:20:24;;;;;;;5.78;3.70;;;;;;;28.38;48.95;100815.97;10018521;29;20128;-70
2021/07/13 13:25:23;;;;;;;4.30;3.15;;;;;;;28.25;48.31;100822.28;10018664;29;20060;-66
2021/07/13 13:30:20;;;;;;;4.47;3.50;;;;;;;28.13;46.23;100817.38;10002632;29;20227;-70
2021/07/13 13:35:24;;;;;;;4.50;3.40;;;;;;;27.93;45.74;100816.63;10011764;29;20103;-69
2021/07/13 13:40:22;;;;;;;6.88;3.90;;;;;;;27.83;45.94;100822.03;10009274;29;21336;-70
2021/07/13 13:45:19;;;;;;;5.68;3.72;;;;;;;27.73;46.33;100817.38;10012610;29;20143;-71
2021/07/13 13:50:16;;;;;;;5.80;3.80;;;;;;;27.69;46.60;100817.47;10011210;29;20048;-69
2021/07/13 13:55:32;;;;;;;5.10;3.38;;;;;;;27.72;46.46;100810.22;10001759;29;20048;-67
2021/07/13 14:00:28;;;;;;;4.35;3.55;;;;;;;27.87;46.76;100805.91;10012838;29;20052;-72
2021/07/13 14:05:25;;;;;;;8.05;3.58;;;;;;;28.12;46.66;100804.53;10027439;29;20070;-68
2021/07/13 14:10:23;;;;;;;5.32;3.50;;;;;;;28.22;45.44;100795.06;10025557;29;20075;-68
2021/07/13 14:15:20;;;;;;;4.47;3.45;;;;;;;28.40;48.12;100793.81;10031972;29;20048;-68
2021/07/13 14:20:17;;;;;;;4.45;3.17;;;;;;;28.45;48.23;100804.53;10032638;29;20055;-69
2021/07/13 14:25:15;;;;;;;4.55;3.33;;;;;;;28.21;46.94;100801.91;10022615;29;20084;-71
2021/07/13 14:30:14;;;;;;;4.25;3.38;;;;;;;28.19;48.47;100798.72;10025138;29;20115;-69
2021/07/13 14:35:11;;;;;;;5.85;3.53;;;;;;;28.01;48.51;100798.34;10023987;29;20044;-68
2021/07/13 14:40:09;;;;;;;5.15;3.75;;;;;;;27.79;51.30;100786.78;10030888;29;20048;-71
2021/07/13 14:45:06;;;;;;;4.93;3.28;;;;;;;27.52;50.88;100796.16;10028869;29;20044;-68
2021/07/13 14:50:04;;;;;;;4.25;3.35;;;;;;;27.26;52.79;100795.09;10026465;29;20047;-68
2021/07/13 14:55:02;;;;;;;6.50;3.80;;;;;;;26.97;54.05;100800.47;10025227;29;20410;-69
2021/07/13 14:59:59;;;;;;;6.18;3.92;;;;;;;26.75;54.13;100805.63;10034317;29;20067;-70
2021/07/13 15:04:55;;;;;;;5.25;3.83;;;;;;;26.60;55.62;100805.88;10015791;29;20376;-68
2021/07/13 15:09:52;;;;;;;4.55;3.65;;;;;;;26.42;56.39;100799.75;10018779;29;20084;-68
2021/07/13 15:14:48;;;;;;;6.60;5.03;;;;;;;26.30;56.86;100794.75;10027748;29;20052;-71
2021/07/13 15:19:45;;;;;;;8.82;5.15;;;;;;;26.20;57.33;100811.31;10021436;29;20134;-69
2021/07/13 15:24:41;;;;;;;8.57;7.05;;;;;;;26.17;58.32;100803.72;10027773;29;20139;-67
2021/07/13 15:29:38;;;;;;;9.48;6.70;;;;;;;26.13;58.16;100805.00;10018535;29;20426;-72
2021/07/13 15:34:34;;;;;;;8.75;7.60;;;;;;;26.07;58.46;100796.28;10017702;29;20047;-71
2021/07/13 15:39:31;;;;;;;7.80;7.00;;;;;;;26.09;58.64;100798.69;10027780;29;20473;-67
2021/07/13 15:44:27;;;;;;;31.95;22.60;;;;;;;26.09;58.45;100788.25;10021644;29;20123;-70
2021/07/13 15:49:24;;;;;;;10.05;6.22;;;;;;;26.16;57.95;100776.94;10021953;29;20146;-67
2021/07/13 15:54:22;;;;;;;10.55;6.22;;;;;;;26.28;57.76;100778.34;10005775;29;20504;-69
2021/07/13 15:59:20;;;;;;;8.50;6.90;;;;;;;26.38;58.44;100782.19;10018603;29;20716;-69
2021/07/13 16:04:17;;;;;;;8.73;6.95;;;;;;;26.43;58.11;100773.28;10024236;29;20056;-70
2021/07/13 16:09:14;;;;;;;12.60;6.35;;;;;;;26.53;57.22;100772.34;10018613;29;20461;-70
2021/07/13 16:14:10;;;;;;;9.50;6.97;;;;;;;27.03;57.25;100782.66;10020339;29;20130;-68
2021/07/13 16:19:07;;;;;;;7.93;5.88;;;;;;;27.04;55.95;100778.66;10020448;29;20135;-68
2021/07/13 16:24:04;;;;;;;8.85;7.88;;;;;;;26.91;56.21;100788.91;10018239;29;20048;-68
2021/07/13 16:29:01;;;;;;;7.53;6.57;;;;;;;26.73;56.71;100791.25;10011925;29;20083;-67
2021/07/13 16:33:57;;;;;;;10.27;7.63;;;;;;;26.60;57.37;100789.06;10018959;29;20770;-68
2021/07/13 16:38:55;;;;;;;10.63;7.40;;;;;;;26.54;57.42;100785.16;10020414;29;20210;-69
2021/07/13 16:43:51;;;;;;;6.95;6.00;;;;;;;26.47;57.55;100793.66;10020084;29;20114;-67
2021/07/13 16:48:48;;;;;;;8.15;7.13;;;;;;;26.41;57.39;100792.53;10024896;29;20043;-69
2021/07/13 16:53:44;;;;;;;9.38;7.32;;;;;;;26.37;58.11;100797.44;10026567;29;20122;-70
2021/07/13 16:58:41;;;;;;;7.70;6.07;;;;;;;26.30;58.30;100803.16;10025739;29;20075;-69
2021/07/13 17:03:37;;;;;;;9.50;7.95;;;;;;;26.18;58.59;100804.53;10020406;29;20052;-69
2021/07/13 17:08:34;;;;;;;9.32;6.82;;;;;;;26.11;59.12;100807.44;10012010;29;20102;-69
2021/07/13 17:13:30;;;;;;;8.35;6.20;;;;;;;26.02;58.71;100814.38;10021004;29;20039;-70
2021/07/13 17:18:27;;;;;;;7.05;6.32;;;;;;;25.91;59.20;100804.53;10003971;29;20511;-70
2021/07/13 17:23:24;;;;;;;9.70;6.15;;;;;;;25.85;59.27;100812.56;10013497;29;20163;-72
2021/07/13 17:28:20;;;;;;;8.48;6.53;;;;;;;25.78;59.94;100824.69;10003130;29;20051;-71
2021/07/13 17:33:17;;;;;;;6.40;5.55;;;;;;;25.72;59.77;100815.16;10012306;29;20131;-73
2021/07/13 17:38:14;;;;;;;8.65;7.15;;;;;;;25.68;60.47;100828.38;10007956;29;20051;-69
2021/07/13 17:43:13;;;;;;;8.77;7.07;;;;;;;25.61;60.13;100820.09;10011749;29;20197;-69
2021/07/13 17:48:27;;;;;;;8.75;6.18;;;;;;;25.55;60.38;100821.75;10013356;29;20055;-71
2021/07/13 17:53:24;;;;;;;8.02;6.93;;;;;;;25.55;60.42;100832.94;10015503;29;20047;-69
2021/07/13 17:58:20;;;;;;;8.13;6.63;;;;;;;25.67;60.04;100834.41;10008170;29;20143;-74
2021/07/13 18:03:17;;;;;;;8.55;6.00;;;;;;;25.75;60.00;100813.50;10024634;29;20131;-68
2021/07/13 18:08:13;;;;;;;9.85;7.15;;;;;;;25.51;60.55;100832.22;10008246;29;20548;-73
2021/07/13 18:13:12;;;;;;;11.35;6.97;;;;;;;25.39;61.16;100836.34;10018526;29;20107;-71
2021/07/13 18:18:08;;;;;;;9.63;6.60;;;;;;;25.25;61.51;100831.72;10014346;29;20151;-68
2021/07/13 18:23:07;;;;;;;8.85;7.72;;;;;;;25.12;62.16;100844.59;10015917;29;20111;-68
2021/07/13 18:28:03;;;;;;;9.77;6.40;;;;;;;25.05;61.73;100833.47;10018714;29;20094;-68
2021/07/13 18:33:00;;;;;;;10.13;8.40;;;;;;;24.87;62.59;100828.84;10018075;29;20048;-69
2021/07/13 18:37:57;;;;;;;8.05;6.50;;;;;;;24.81;62.54;100824.91;10001948;29;20051;-69
2021/07/13 18:42:54;;;;;;;10.68;7.30;;;;;;;24.75;62.76;100826.56;10012689;29;20060;-69
2021/07/13 18:47:51;;;;;;;10.80;8.15;;;;;;;24.67;63.11;100827.81;10021478;29;20071;-68
2021/07/13 18:52:51;;;;;;;8.93;7.85;;;;;;;24.64;63.06;100820.25;10021801;29;20099;-69
2021/07/13 18:57:47;;;;;;;8.18;7.30;;;;;;;24.61;63.32;100826.69;10027620;29;20169;-69
2021/07/13 19:02:44;;;;;;;9.35;7.45;;;;;;;24.55;63.43;100815.13;10022823;29;20040;-69
2021/07/13 19:07:40;;;;;;;12.57;7.82;;;;;;;24.48;63.46;100807.59;10020327;29;20162;-69
2021/07/13 19:12:37;;;;;;;11.38;9.07;;;;;;;24.43;63.92;100804.44;10022452;29;20111;-70
2021/07/13 19:17:34;;;;;;;8.75;7.80;;;;;;;24.38;63.72;100794.47;10022445;29;20051;-69
2021/07/13 19:22:31;;;;;;;10.10;8.32;;;;;;;24.32;64.42;100810.91;10026189;29;20127;-69
2021/07/13 19:27:29;;;;;;;9.48;8.48;;;;;;;24.26;64.43;100806.16;10033022;29;20040;-69
2021/07/13 19:32:31;;;;;;;10.52;9.52;;;;;;;24.19;64.84;100820.16;10015744;29;20055;-69
2021/07/13 19:37:32;;;;;;;9.73;8.65;;;;;;;24.10;64.51;100815.81;10015645;29;20068;-66
2021/07/13 19:42:29;;;;;;;10.60;8.75;;;;;;;24.04;65.04;100817.44;10020833;29;20632;-65
2021/07/13 19:47:26;;;;;;;10.95;8.13;;;;;;;24.00;65.60;100811.09;10020736;29;20052;-70
2021/07/13 19:52:22;;;;;;;11.65;8.82;;;;;;;23.91;65.27;100813.56;10014880;29;20123;-70
2021/07/13 19:57:19;;;;;;;13.73;10.30;;;;;;;23.82;66.28;100811.19;10027772;28;20052;-70
2021/07/13 20:02:16;;;;;;;12.95;9.45;;;;;;;23.76;65.90;100812.03;10015954;29;20051;-68
2021/07/13 20:07:12;;;;;;;9.10;8.18;;;;;;;23.70;65.63;100815.22;10023059;28;20119;-67
2021/07/13 20:12:12;;;;;;;11.05;8.57;;;;;;;23.75;65.73;100813.22;10022460;29;20155;-67
2021/07/13 20:17:09;;;;;;;12.70;9.32;;;;;;;23.71;66.00;100816.78;10024430;29;20556;-67
2021/07/13 20:22:06;;;;;;;11.32;9.18;;;;;;;23.65;65.91;100824.00;10024268;29;20050;-68
2021/07/13 20:27:03;;;;;;;10.00;8.98;;;;;;;23.63;66.33;100825.63;10038661;29;20039;-68
2021/07/13 20:31:59;;;;;;;9.98;8.77;;;;;;;23.56;66.15;100831.22;10029433;29;20043;-68
2021/07/13 20:36:56;;;;;;;10.27;9.27;;;;;;;23.52;66.83;100825.66;10037626;29;20048;-68
2021/07/13 20:41:53;;;;;;;10.18;8.98;;;;;;;23.46;67.00;100832.84;10030389;29;20320;-68
2021/07/13 20:46:50;;;;;;;9.88;8.48;;;;;;;23.39;66.98;100839.22;10031724;29;20070;-69
2021/07/13 20:51:47;;;;;;;13.13;9.50;;;;;;;23.31;66.36;100841.25;10030328;29;20062;-67
2021/07/13 20:56:44;;;;;;;9.40;8.40;;;;;;;23.25;66.99;100856.78;10035667;29;20040;-68
2021/07/13 21:01:40;;;;;;;15.13;9.52;;;;;;;23.22;67.40;100857.59;10034291;29;20040;-67
2021/07/13 21:06:37;;;;;;;11.48;8.82;;;;;;;23.14;67.78;100844.06;10027801;29;20048;-66
2021/07/13 21:11:34;;;;;;;10.68;9.50;;;;;;;23.06;68.28;100843.28;10025214;29;20040;-66
2021/07/13 21:16:30;;;;;;;13.07;9.55;;;;;;;23.00;68.64;100839.31;10028467;29;20059;-69
2021/07/13 21:21:27;;;;;;;9.55;8.55;;;;;;;22.94;68.47;100846.47;10028258;29;20106;-68
2021/07/13 21:26:24;;;;;;;10.40;9.00;;;;;;;22.87;68.48;100848.06;10026119;29;20052;-68
2021/07/13 21:31:21;;;;;;;12.57;8.50;;;;;;;22.80;69.13;100853.63;10023924;29;20075;-69
2021/07/13 21:36:18;;;;;;;11.93;8.20;;;;;;;22.71;69.56;100855.25;10023326;29;20036;-68
2021/07/13 21:41:14;;;;;;;11.70;9.00;;;;;;;22.62;69.14;100858.41;10030701;29;20070;-68
2021/07/13 21:46:11;;;;;;;13.73;7.85;;;;;;;22.57;69.27;100856.03;10028202;29;20083;-69
2021/07/13 21:51:07;;;;;;;10.50;8.70;;;;;;;22.51;69.27;100852.81;10025444;28;20058;-68
2021/07/13 21:56:04;;;;;;;8.07;6.65;;;;;;;22.44;69.29;100848.06;10033729;29;20107;-68
2021/07/13 22:01:00;;;;;;;10.48;7.47;;;;;;;22.40;69.45;100840.88;10027907;29;20051;-68
2021/07/13 22:05:57;;;;;;;11.25;7.63;;;;;;;22.38;69.79;100841.28;10027851;29;20047;-68
2021/07/13 22:10:54;;;;;;;10.90;7.70;;;;;;;22.35;69.79;100839.28;10030238;29;20146;-68
2021/07/13 22:15:50;;;;;;;8.80;7.47;;;;;;;22.33;70.21;100830.53;10025196;29;20104;-68
2021/07/13 22:20:47;;;;;;;9.50;7.80;;;;;;;22.28;69.68;100828.13;10027486;29;20477;-68
2021/07/13 22:25:45;;;;;;;8.88;7.22;;;;;;;22.23;69.66;100825.72;10025285;29;20047;-68
2021/07/13 22:30:46;;;;;;;10.98;7.45;;;;;;;22.19;69.65;100836.84;10032525;29;20071;-68
2021/07/13 22:35:43;;;;;;;11.35;6.85;;;;;;;22.18;69.85;100828.88;10032840;29;20060;-68
2021/07/13 22:40:39;;;;;;;13.32;7.95;;;;;;;22.15;70.38;100826.88;10026197;29;20048;-69
2021/07/13 22:45:36;;;;;;;11.30;8.23;;;;;;;22.11;71.07;100834.41;10007474;29;20126;-68